LPE0021 SKIB-SKPS
Flight info
| Callsign | LPE0021 |
|---|---|
| Flight time | 1h 3m |
| Altitude | 34000 |
| Route | USANA2B USANA DCT MER |
| Aircraft | A20N/M-SDE2E3FGHIRWXY/LB1 |
Departure
| Time | 2026-05-08 22:10 |
|---|---|
| Airport | Perales Airport (SKIB) |
Arrival
| Time | 2026-05-08 23:13 |
|---|---|
| Airport | Antonio Nariño Airport (SKPS) |
| Time | Latitude | Longitude | Altitude | Speed | Heading |
|---|---|---|---|---|---|
| 2026-05-08 21:36 | 4.42593 | -75.14053 | 3089 ft | 0 kts | 220° |
| 2026-05-08 21:57 | 4.42599 | -75.14047 | 3105 ft | 2 kts | 221° |
| 2026-05-08 21:58 | 4.42606 | -75.14041 | 3099 ft | 0 kts | 221° |
| 2026-05-08 21:58 | 4.42619 | -75.14030 | 3092 ft | 1 kts | 221° |
| 2026-05-08 21:58 | 4.42625 | -75.14021 | 3087 ft | 1 kts | 270° |
| 2026-05-08 21:58 | 4.42622 | -75.14011 | 3086 ft | 0 kts | 307° |
| 2026-05-08 21:59 | 4.42616 | -75.14005 | 3086 ft | 2 kts | 324° |
| 2026-05-08 21:59 | 4.42608 | -75.14001 | 3086 ft | 0 kts | 317° |
| 2026-05-08 21:59 | 4.42605 | -75.13998 | 3086 ft | 0 kts | 310° |
| 2026-05-08 22:04 | 4.42606 | -75.13998 | 3086 ft | 0 kts | 310° |
| 2026-05-08 22:04 | 4.42632 | -75.14013 | 3086 ft | 4 kts | 12° |
| 2026-05-08 22:05 | 4.42661 | -75.13992 | 3086 ft | 0 kts | 41° |
| 2026-05-08 22:05 | 4.42662 | -75.13992 | 3086 ft | 0 kts | 41° |
| 2026-05-08 22:05 | 4.42669 | -75.13985 | 3086 ft | 2 kts | 44° |
| 2026-05-08 22:06 | 4.42680 | -75.13969 | 3086 ft | 2 kts | 76° |
| 2026-05-08 22:06 | 4.42671 | -75.13947 | 3085 ft | 2 kts | 132° |
| 2026-05-08 22:06 | 4.42659 | -75.13934 | 3084 ft | 0 kts | 130° |
| 2026-05-08 22:07 | 4.42657 | -75.13931 | 3084 ft | 0 kts | 130° |
| 2026-05-08 22:09 | 4.42657 | -75.13930 | 3084 ft | 0 kts | 130° |
| 2026-05-08 22:09 | 4.42545 | -75.13800 | 3078 ft | 68 kts | 131° |
| 2026-05-08 22:09 | 4.42043 | -75.13220 | 3040 ft | 146 kts | 131° |
| 2026-05-08 22:10 | 4.41310 | -75.12410 | 3470 ft | 163 kts | 137° |
| 2026-05-08 22:10 | 4.40332 | -75.11778 | 4018 ft | 172 kts | 152° |
| 2026-05-08 22:10 | 4.39366 | -75.11097 | 4632 ft | 174 kts | 134° |
| 2026-05-08 22:10 | 4.38456 | -75.10249 | 5071 ft | 189 kts | 141° |
| 2026-05-08 22:11 | 4.37232 | -75.09618 | 5497 ft | 207 kts | 165° |
| 2026-05-08 22:11 | 4.35770 | -75.09328 | 5952 ft | 224 kts | 169° |
| 2026-05-08 22:11 | 4.34152 | -75.09048 | 6423 ft | 242 kts | 168° |
| 2026-05-08 22:11 | 4.32424 | -75.08704 | 6891 ft | 260 kts | 167° |
| 2026-05-08 22:12 | 4.30600 | -75.08297 | 7352 ft | 278 kts | 166° |
| 2026-05-08 22:12 | 4.28668 | -75.07838 | 7954 ft | 289 kts | 166° |
| 2026-05-08 22:12 | 4.26691 | -75.07357 | 8732 ft | 293 kts | 166° |
| 2026-05-08 22:12 | 4.24714 | -75.06870 | 9518 ft | 296 kts | 165° |
| 2026-05-08 22:13 | 4.22697 | -75.06369 | 10264 ft | 300 kts | 166° |
| 2026-05-08 22:13 | 4.20615 | -75.05851 | 10729 ft | 315 kts | 165° |
| 2026-05-08 22:13 | 4.18422 | -75.05306 | 11155 ft | 330 kts | 166° |
| 2026-05-08 22:13 | 4.16178 | -75.04759 | 11799 ft | 336 kts | 166° |
| 2026-05-08 22:14 | 4.13870 | -75.04202 | 12514 ft | 340 kts | 165° |
| 2026-05-08 22:14 | 4.11576 | -75.03647 | 13206 ft | 343 kts | 165° |
| 2026-05-08 22:14 | 4.09249 | -75.03083 | 13879 ft | 346 kts | 166° |
| 2026-05-08 22:14 | 4.06877 | -75.02506 | 14569 ft | 349 kts | 166° |
| 2026-05-08 22:15 | 4.04502 | -75.01929 | 15211 ft | 352 kts | 166° |
| 2026-05-08 22:15 | 4.02091 | -75.01344 | 15821 ft | 356 kts | 166° |
| 2026-05-08 22:15 | 3.99691 | -75.00761 | 16433 ft | 359 kts | 166° |
| 2026-05-08 22:15 | 3.97229 | -75.00164 | 17046 ft | 362 kts | 166° |
| 2026-05-08 22:16 | 3.94764 | -74.99564 | 17646 ft | 365 kts | 166° |
| 2026-05-08 22:16 | 3.92300 | -74.98967 | 18226 ft | 366 kts | 166° |
| 2026-05-08 22:16 | 3.89807 | -74.98438 | 18818 ft | 369 kts | 174° |
| 2026-05-08 22:16 | 3.87239 | -74.98647 | 19336 ft | 373 kts | 195° |
| 2026-05-08 22:17 | 3.84868 | -74.99786 | 19858 ft | 377 kts | 216° |
| 2026-05-08 22:17 | 3.82957 | -75.01588 | 20392 ft | 381 kts | 226° |
| 2026-05-08 22:17 | 3.81134 | -75.03529 | 20904 ft | 384 kts | 226° |
| 2026-05-08 22:17 | 3.79291 | -75.05491 | 21397 ft | 387 kts | 226° |
| 2026-05-08 22:18 | 3.77428 | -75.07466 | 21883 ft | 390 kts | 225° |
| 2026-05-08 22:18 | 3.75552 | -75.09448 | 22375 ft | 393 kts | 225° |
| 2026-05-08 22:18 | 3.73681 | -75.11416 | 22897 ft | 394 kts | 225° |
| 2026-05-08 22:18 | 3.71794 | -75.13397 | 23430 ft | 396 kts | 225° |
| 2026-05-08 22:19 | 3.69880 | -75.15407 | 23952 ft | 397 kts | 225° |
| 2026-05-08 22:19 | 3.67965 | -75.17416 | 24464 ft | 399 kts | 225° |
| 2026-05-08 22:19 | 3.66050 | -75.19426 | 24974 ft | 400 kts | 225° |
| 2026-05-08 22:19 | 3.64125 | -75.21442 | 25457 ft | 402 kts | 225° |
| 2026-05-08 22:20 | 3.62171 | -75.23489 | 25919 ft | 404 kts | 225° |
| 2026-05-08 22:20 | 3.60239 | -75.25515 | 26394 ft | 405 kts | 225° |
| 2026-05-08 22:20 | 3.58279 | -75.27567 | 26881 ft | 406 kts | 225° |
| 2026-05-08 22:20 | 3.56327 | -75.29613 | 27324 ft | 408 kts | 225° |
| 2026-05-08 22:21 | 3.54372 | -75.31661 | 27754 ft | 409 kts | 225° |
| 2026-05-08 22:21 | 3.52410 | -75.33717 | 28192 ft | 411 kts | 225° |
| 2026-05-08 22:21 | 3.50434 | -75.35788 | 28623 ft | 412 kts | 225° |
| 2026-05-08 22:21 | 3.48440 | -75.37877 | 29054 ft | 413 kts | 225° |
| 2026-05-08 22:22 | 3.46455 | -75.39955 | 29450 ft | 415 kts | 225° |
| 2026-05-08 22:22 | 3.44455 | -75.42049 | 29825 ft | 417 kts | 226° |
| 2026-05-08 22:22 | 3.42458 | -75.44140 | 30195 ft | 420 kts | 226° |
| 2026-05-08 22:22 | 3.40431 | -75.46262 | 30576 ft | 421 kts | 226° |
| 2026-05-08 22:23 | 3.38411 | -75.48377 | 30920 ft | 423 kts | 226° |
| 2026-05-08 22:23 | 3.36353 | -75.50532 | 31339 ft | 424 kts | 226° |
| 2026-05-08 22:23 | 3.34337 | -75.52642 | 31810 ft | 422 kts | 226° |
| 2026-05-08 22:23 | 3.32302 | -75.54774 | 32270 ft | 421 kts | 226° |
| 2026-05-08 22:24 | 3.30269 | -75.56903 | 32727 ft | 421 kts | 227° |
| 2026-05-08 22:24 | 3.28250 | -75.59018 | 33128 ft | 422 kts | 227° |
| 2026-05-08 22:24 | 3.26206 | -75.61159 | 33480 ft | 424 kts | 227° |
| 2026-05-08 22:24 | 3.24171 | -75.63290 | 33785 ft | 427 kts | 227° |
| 2026-05-08 22:25 | 3.22106 | -75.65451 | 34097 ft | 429 kts | 227° |
| 2026-05-08 22:25 | 3.20035 | -75.67619 | 34380 ft | 431 kts | 227° |
| 2026-05-08 22:25 | 3.17959 | -75.69791 | 34424 ft | 433 kts | 227° |
| 2026-05-08 22:26 | 3.13803 | -75.74143 | 34457 ft | 432 kts | 227° |
| 2026-05-08 22:26 | 3.09664 | -75.78474 | 34529 ft | 432 kts | 227° |
| 2026-05-08 22:27 | 3.05518 | -75.82813 | 34576 ft | 432 kts | 227° |
| 2026-05-08 22:27 | 3.01343 | -75.87181 | 34628 ft | 432 kts | 227° |
| 2026-05-08 22:28 | 2.97190 | -75.91527 | 34661 ft | 432 kts | 227° |
| 2026-05-08 22:28 | 2.93049 | -75.95859 | 34669 ft | 433 kts | 227° |
| 2026-05-08 22:29 | 2.88859 | -76.00240 | 34662 ft | 433 kts | 227° |
| 2026-05-08 22:29 | 2.84694 | -76.04595 | 34597 ft | 433 kts | 227° |
| 2026-05-08 22:30 | 2.80528 | -76.08953 | 34564 ft | 434 kts | 227° |
| 2026-05-08 22:30 | 2.76343 | -76.13328 | 34519 ft | 435 kts | 227° |
| 2026-05-08 22:31 | 2.72143 | -76.17717 | 34518 ft | 435 kts | 227° |
| 2026-05-08 22:31 | 2.67951 | -76.22102 | 34518 ft | 436 kts | 227° |
| 2026-05-08 22:32 | 2.63768 | -76.26472 | 34536 ft | 436 kts | 227° |
| 2026-05-08 22:32 | 2.59555 | -76.30878 | 33948 ft | 438 kts | 227° |
| 2026-05-08 22:32 | 2.57447 | -76.33081 | 33270 ft | 437 kts | 227° |
| 2026-05-08 22:33 | 2.55353 | -76.35269 | 32614 ft | 435 kts | 227° |
| 2026-05-08 22:33 | 2.53273 | -76.37444 | 31962 ft | 434 kts | 227° |
| 2026-05-08 22:33 | 2.51198 | -76.39613 | 31279 ft | 434 kts | 226° |
| 2026-05-08 22:33 | 2.49113 | -76.41792 | 30613 ft | 433 kts | 226° |
| 2026-05-08 22:34 | 2.47042 | -76.43955 | 30161 ft | 427 kts | 226° |
| 2026-05-08 22:34 | 2.44990 | -76.46099 | 29678 ft | 422 kts | 226° |
| 2026-05-08 22:34 | 2.42971 | -76.48209 | 29213 ft | 417 kts | 226° |
| 2026-05-08 22:34 | 2.40990 | -76.50278 | 28764 ft | 412 kts | 226° |
| 2026-05-08 22:35 | 2.39014 | -76.52340 | 28297 ft | 408 kts | 226° |
| 2026-05-08 22:35 | 2.37071 | -76.54369 | 27819 ft | 404 kts | 226° |
| 2026-05-08 22:35 | 2.35136 | -76.56390 | 27343 ft | 401 kts | 226° |
| 2026-05-08 22:35 | 2.33209 | -76.58403 | 26861 ft | 398 kts | 226° |
| 2026-05-08 22:36 | 2.31306 | -76.60393 | 26373 ft | 395 kts | 225° |
| 2026-05-08 22:36 | 2.29412 | -76.62371 | 25882 ft | 394 kts | 225° |
| 2026-05-08 22:36 | 2.27528 | -76.64339 | 25396 ft | 392 kts | 225° |
| 2026-05-08 22:36 | 2.25635 | -76.66316 | 24929 ft | 389 kts | 225° |
| 2026-05-08 22:37 | 2.23750 | -76.68287 | 24445 ft | 388 kts | 225° |
| 2026-05-08 22:37 | 2.21878 | -76.70242 | 23943 ft | 387 kts | 225° |
| 2026-05-08 22:37 | 2.20027 | -76.72174 | 23472 ft | 386 kts | 225° |
| 2026-05-08 22:37 | 2.18172 | -76.74111 | 23018 ft | 385 kts | 225° |
| 2026-05-08 22:38 | 2.16324 | -76.76039 | 22542 ft | 384 kts | 225° |
| 2026-05-08 22:38 | 2.14452 | -76.77993 | 22063 ft | 384 kts | 224° |
| 2026-05-08 22:38 | 2.12615 | -76.79909 | 21605 ft | 383 kts | 225° |
| 2026-05-08 22:38 | 2.10781 | -76.81825 | 21138 ft | 382 kts | 225° |
| 2026-05-08 22:39 | 2.08937 | -76.83749 | 20660 ft | 382 kts | 225° |
| 2026-05-08 22:39 | 2.07109 | -76.85658 | 20184 ft | 381 kts | 225° |
| 2026-05-08 22:39 | 2.05274 | -76.87571 | 19705 ft | 380 kts | 225° |
| 2026-05-08 22:39 | 2.03441 | -76.89484 | 19213 ft | 379 kts | 225° |
| 2026-05-08 22:40 | 2.01611 | -76.91395 | 18718 ft | 378 kts | 225° |
| 2026-05-08 22:40 | 1.99810 | -76.93275 | 18236 ft | 376 kts | 225° |
| 2026-05-08 22:40 | 1.98015 | -76.95151 | 17763 ft | 374 kts | 225° |
| 2026-05-08 22:40 | 1.96198 | -76.97046 | 17287 ft | 372 kts | 225° |
| 2026-05-08 22:41 | 1.94420 | -76.98904 | 16810 ft | 371 kts | 225° |
| 2026-05-08 22:41 | 1.92634 | -77.00769 | 16333 ft | 369 kts | 225° |
| 2026-05-08 22:41 | 1.90877 | -77.02605 | 16012 ft | 362 kts | 225° |
| 2026-05-08 22:41 | 1.89122 | -77.04437 | 15642 ft | 357 kts | 225° |
| 2026-05-08 22:42 | 1.87416 | -77.06220 | 15287 ft | 351 kts | 225° |
| 2026-05-08 22:42 | 1.85745 | -77.07965 | 14971 ft | 345 kts | 225° |
| 2026-05-08 22:42 | 1.84089 | -77.09692 | 14655 ft | 339 kts | 225° |
| 2026-05-08 22:42 | 1.82483 | -77.11370 | 14435 ft | 330 kts | 225° |
| 2026-05-08 22:43 | 1.80898 | -77.13025 | 14275 ft | 319 kts | 225° |
| 2026-05-08 22:43 | 1.79369 | -77.14550 | 14129 ft | 307 kts | 220° |
| 2026-05-08 22:43 | 1.77662 | -77.15791 | 14058 ft | 292 kts | 210° |
| 2026-05-08 22:43 | 1.75936 | -77.16758 | 13961 ft | 281 kts | 207° |
| 2026-05-08 22:44 | 1.74217 | -77.17667 | 13727 ft | 276 kts | 206° |
| 2026-05-08 22:44 | 1.72516 | -77.18563 | 13474 ft | 272 kts | 206° |
| 2026-05-08 22:44 | 1.70861 | -77.19437 | 13223 ft | 268 kts | 206° |
| 2026-05-08 22:44 | 1.69231 | -77.20303 | 12974 ft | 264 kts | 207° |
| 2026-05-08 22:45 | 1.67602 | -77.21172 | 12736 ft | 260 kts | 207° |
| 2026-05-08 22:45 | 1.66022 | -77.22015 | 12501 ft | 256 kts | 207° |
| 2026-05-08 22:45 | 1.64458 | -77.22852 | 12274 ft | 252 kts | 207° |
| 2026-05-08 22:45 | 1.62918 | -77.23676 | 12044 ft | 248 kts | 207° |
| 2026-05-08 22:46 | 1.61412 | -77.24483 | 11810 ft | 244 kts | 207° |
| 2026-05-08 22:46 | 1.59917 | -77.25284 | 11585 ft | 240 kts | 207° |
| 2026-05-08 22:46 | 1.58467 | -77.26060 | 11360 ft | 236 kts | 207° |
| 2026-05-08 22:46 | 1.57020 | -77.26837 | 11137 ft | 232 kts | 207° |
| 2026-05-08 22:47 | 1.55604 | -77.27595 | 10913 ft | 228 kts | 207° |
| 2026-05-08 22:47 | 1.54226 | -77.28332 | 10788 ft | 217 kts | 207° |
| 2026-05-08 22:47 | 1.52915 | -77.29034 | 10558 ft | 210 kts | 207° |
| 2026-05-08 22:47 | 1.51618 | -77.29700 | 10288 ft | 207 kts | 206° |
| 2026-05-08 22:48 | 1.50353 | -77.30331 | 10022 ft | 203 kts | 205° |
| 2026-05-08 22:48 | 1.49095 | -77.30956 | 9753 ft | 199 kts | 205° |
| 2026-05-08 22:48 | 1.47866 | -77.31570 | 9530 ft | 192 kts | 205° |
| 2026-05-08 22:48 | 1.46676 | -77.32164 | 9295 ft | 186 kts | 206° |
| 2026-05-08 22:49 | 1.45530 | -77.32736 | 9068 ft | 181 kts | 206° |
| 2026-05-08 22:49 | 1.43291 | -77.33857 | 8903 ft | 179 kts | 206° |
| 2026-05-08 22:49 | 1.42173 | -77.34417 | 8893 ft | 180 kts | 206° |
| 2026-05-08 22:50 | 1.41032 | -77.34989 | 8892 ft | 179 kts | 206° |
| 2026-05-08 22:50 | 1.39909 | -77.35552 | 8893 ft | 180 kts | 206° |
| 2026-05-08 22:50 | 1.38794 | -77.36111 | 8895 ft | 179 kts | 206° |
| 2026-05-08 22:50 | 1.37613 | -77.36530 | 8861 ft | 179 kts | 187° |
| 2026-05-08 22:51 | 1.36372 | -77.36488 | 8886 ft | 178 kts | 166° |
| 2026-05-08 22:51 | 1.35238 | -77.35996 | 8937 ft | 176 kts | 144° |
| 2026-05-08 22:51 | 1.34375 | -77.35144 | 8991 ft | 175 kts | 123° |
| 2026-05-08 22:51 | 1.33872 | -77.34039 | 9047 ft | 174 kts | 102° |
| 2026-05-08 22:52 | 1.33794 | -77.32851 | 9108 ft | 173 kts | 82° |
| 2026-05-08 22:52 | 1.34139 | -77.31709 | 9167 ft | 168 kts | 63° |
| 2026-05-08 22:52 | 1.34787 | -77.30805 | 8949 ft | 158 kts | 49° |
| 2026-05-08 22:52 | 1.35657 | -77.30078 | 8427 ft | 166 kts | 26° |
| 2026-05-08 22:53 | 1.36749 | -77.29723 | 8108 ft | 167 kts | 14° |
| 2026-05-08 22:53 | 1.37906 | -77.29524 | 7881 ft | 168 kts | 6° |
| 2026-05-08 22:53 | 1.39053 | -77.29327 | 7643 ft | 168 kts | 12° |
| 2026-05-08 22:53 | 1.40210 | -77.29076 | 7410 ft | 172 kts | 13° |
| 2026-05-08 22:54 | 1.41449 | -77.28730 | 7983 ft | 191 kts | 17° |
| 2026-05-08 22:54 | 1.42716 | -77.28351 | 8686 ft | 194 kts | 17° |
| 2026-05-08 22:54 | 1.44070 | -77.27962 | 9065 ft | 210 kts | 16° |
| 2026-05-08 22:54 | 1.45574 | -77.27603 | 9424 ft | 231 kts | 6° |
| 2026-05-08 22:55 | 1.47224 | -77.27663 | 9953 ft | 244 kts | 350° |
| 2026-05-08 22:55 | 1.48900 | -77.28037 | 10575 ft | 248 kts | 347° |
| 2026-05-08 22:55 | 1.50591 | -77.28451 | 10934 ft | 250 kts | 347° |
| 2026-05-08 22:55 | 1.52285 | -77.28869 | 11059 ft | 251 kts | 347° |
| 2026-05-08 22:56 | 1.53992 | -77.29285 | 11050 ft | 249 kts | 347° |
| 2026-05-08 22:56 | 1.55699 | -77.29697 | 11050 ft | 249 kts | 347° |
| 2026-05-08 22:56 | 1.57386 | -77.30102 | 11056 ft | 248 kts | 347° |
| 2026-05-08 22:56 | 1.59068 | -77.30505 | 11059 ft | 248 kts | 348° |
| 2026-05-08 22:57 | 1.60762 | -77.30910 | 11044 ft | 248 kts | 347° |
| 2026-05-08 22:57 | 1.62443 | -77.31313 | 11016 ft | 248 kts | 347° |
| 2026-05-08 22:57 | 1.64130 | -77.31717 | 11006 ft | 248 kts | 348° |
| 2026-05-08 22:57 | 1.65828 | -77.32123 | 11004 ft | 248 kts | 347° |
| 2026-05-08 22:58 | 1.67525 | -77.32528 | 10996 ft | 248 kts | 347° |
| 2026-05-08 22:58 | 1.69233 | -77.32916 | 10999 ft | 248 kts | 354° |
| 2026-05-08 22:58 | 1.70913 | -77.32698 | 10955 ft | 245 kts | 30° |
| 2026-05-08 22:58 | 1.72117 | -77.31523 | 10965 ft | 244 kts | 63° |
| 2026-05-08 22:59 | 1.72738 | -77.29945 | 10984 ft | 243 kts | 71° |
| 2026-05-08 22:59 | 1.73314 | -77.28348 | 10978 ft | 243 kts | 69° |
| 2026-05-08 22:59 | 1.73924 | -77.26777 | 10971 ft | 243 kts | 68° |
| 2026-05-08 22:59 | 1.74571 | -77.25199 | 10955 ft | 243 kts | 68° |
| 2026-05-08 23:00 | 1.75230 | -77.23637 | 10979 ft | 243 kts | 67° |
| 2026-05-08 23:00 | 1.75895 | -77.22080 | 10994 ft | 244 kts | 67° |
| 2026-05-08 23:00 | 1.76562 | -77.20528 | 10999 ft | 244 kts | 67° |
| 2026-05-08 23:00 | 1.77238 | -77.18954 | 10998 ft | 243 kts | 68° |
| 2026-05-08 23:01 | 1.77609 | -77.17331 | 11006 ft | 244 kts | 90° |
| 2026-05-08 23:01 | 1.77278 | -77.15668 | 11037 ft | 244 kts | 114° |
| 2026-05-08 23:01 | 1.76317 | -77.14269 | 11062 ft | 246 kts | 136° |
| 2026-05-08 23:01 | 1.74886 | -77.13345 | 10912 ft | 244 kts | 159° |
| 2026-05-08 23:02 | 1.73217 | -77.13057 | 10578 ft | 247 kts | 182° |
| 2026-05-08 23:02 | 1.71536 | -77.13473 | 10259 ft | 248 kts | 206° |
| 2026-05-08 23:02 | 1.70164 | -77.14497 | 9956 ft | 248 kts | 230° |
| 2026-05-08 23:02 | 1.69305 | -77.15977 | 9647 ft | 247 kts | 253° |
| 2026-05-08 23:03 | 1.69018 | -77.17666 | 9348 ft | 245 kts | 264° |
| 2026-05-08 23:03 | 1.68692 | -77.19321 | 9151 ft | 239 kts | 249° |
| 2026-05-08 23:03 | 1.67875 | -77.20711 | 8984 ft | 232 kts | 226° |
| 2026-05-08 23:03 | 1.66613 | -77.21680 | 8868 ft | 223 kts | 210° |
| 2026-05-08 23:04 | 1.65248 | -77.22446 | 8864 ft | 224 kts | 208° |
| 2026-05-08 23:04 | 1.63865 | -77.23186 | 8860 ft | 225 kts | 208° |
| 2026-05-08 23:04 | 1.62485 | -77.23919 | 8857 ft | 225 kts | 208° |
| 2026-05-08 23:04 | 1.61120 | -77.24646 | 8853 ft | 213 kts | 208° |
| 2026-05-08 23:05 | 1.59864 | -77.25317 | 8845 ft | 198 kts | 208° |
| 2026-05-08 23:05 | 1.58672 | -77.25955 | 8855 ft | 191 kts | 208° |
| 2026-05-08 23:05 | 1.57485 | -77.26589 | 8879 ft | 191 kts | 208° |
| 2026-05-08 23:05 | 1.56314 | -77.27216 | 8883 ft | 191 kts | 208° |
| 2026-05-08 23:06 | 1.55144 | -77.27843 | 8962 ft | 191 kts | 208° |
| 2026-05-08 23:06 | 1.53945 | -77.28484 | 8933 ft | 192 kts | 208° |
| 2026-05-08 23:06 | 1.52765 | -77.29114 | 8909 ft | 192 kts | 207° |
| 2026-05-08 23:06 | 1.51562 | -77.29729 | 8899 ft | 192 kts | 207° |
| 2026-05-08 23:07 | 1.50371 | -77.30320 | 8893 ft | 191 kts | 206° |
| 2026-05-08 23:07 | 1.49169 | -77.30919 | 8893 ft | 191 kts | 206° |
| 2026-05-08 23:07 | 1.47969 | -77.31516 | 8888 ft | 191 kts | 207° |
| 2026-05-08 23:07 | 1.46788 | -77.32107 | 8876 ft | 183 kts | 206° |
| 2026-05-08 23:08 | 1.45660 | -77.32672 | 8876 ft | 175 kts | 207° |
| 2026-05-08 23:08 | 1.44571 | -77.33219 | 8884 ft | 174 kts | 206° |
| 2026-05-08 23:08 | 1.43484 | -77.33764 | 8883 ft | 174 kts | 206° |
| 2026-05-08 23:08 | 1.42395 | -77.34310 | 8879 ft | 174 kts | 206° |
| 2026-05-08 23:09 | 1.41294 | -77.34860 | 8880 ft | 174 kts | 206° |
| 2026-05-08 23:09 | 1.40214 | -77.35400 | 8880 ft | 174 kts | 206° |
| 2026-05-08 23:09 | 1.39129 | -77.35945 | 8881 ft | 174 kts | 206° |
| 2026-05-08 23:09 | 1.38033 | -77.36468 | 8847 ft | 173 kts | 203° |
| 2026-05-08 23:10 | 1.36906 | -77.36921 | 8666 ft | 169 kts | 195° |
| 2026-05-08 23:10 | 1.35769 | -77.36887 | 8210 ft | 171 kts | 149° |
| 2026-05-08 23:10 | 1.34997 | -77.36020 | 7770 ft | 170 kts | 116° |
| 2026-05-08 23:10 | 1.34496 | -77.34990 | 7511 ft | 159 kts | 108° |
| 2026-05-08 23:11 | 1.34120 | -77.33948 | 7392 ft | 165 kts | 101° |
| 2026-05-08 23:11 | 1.34031 | -77.32835 | 7421 ft | 152 kts | 82° |
| 2026-05-08 23:11 | 1.34286 | -77.31762 | 7263 ft | 166 kts | 67° |
| 2026-05-08 23:11 | 1.34812 | -77.30785 | 7052 ft | 163 kts | 50° |
| 2026-05-08 23:12 | 1.35753 | -77.30033 | 6837 ft | 173 kts | 19° |
| 2026-05-08 23:12 | 1.36910 | -77.29772 | 6482 ft | 168 kts | 11° |
| 2026-05-08 23:12 | 1.38045 | -77.29530 | 6136 ft | 163 kts | 17° |
| 2026-05-08 23:12 | 1.39099 | -77.29243 | 5955 ft | 149 kts | 17° |
| 2026-05-08 23:13 | 1.39896 | -77.29034 | 5910 ft | 77 kts | 13° |
| 2026-05-08 23:13 | 1.40141 | -77.28970 | 5892 ft | 10 kts | 14° |
| 2026-05-08 23:13 | 1.40293 | -77.28928 | 5880 ft | 32 kts | 15° |
| 2026-05-08 23:13 | 1.40515 | -77.28869 | 5863 ft | 28 kts | 14° |
| 2026-05-08 23:14 | 1.40619 | -77.28857 | 5858 ft | 6 kts | 40° |
| 2026-05-08 23:14 | 1.40582 | -77.28845 | 5859 ft | 9 kts | 200° |
| 2026-05-08 23:14 | 1.40477 | -77.28879 | 5867 ft | 14 kts | 195° |
| 2026-05-08 23:14 | 1.40379 | -77.28906 | 5874 ft | 13 kts | 195° |
| 2026-05-08 23:15 | 1.40224 | -77.28949 | 5885 ft | 44 kts | 193° |
| 2026-05-08 23:15 | 1.39852 | -77.29047 | 5913 ft | 51 kts | 196° |
| 2026-05-08 23:15 | 1.39699 | -77.29089 | 5923 ft | 14 kts | 192° |
| 2026-05-08 23:15 | 1.39614 | -77.29105 | 5927 ft | 7 kts | 161° |
| 2026-05-08 23:16 | 1.39593 | -77.29070 | 5928 ft | 0 kts | 109° |
| 2026-05-08 23:17 | 1.39593 | -77.29069 | 5928 ft | 0 kts | 109° |
| 2026-05-08 23:17 | 1.39590 | -77.29060 | 5928 ft | 1 kts | 108° |
| 2026-05-08 23:17 | 1.39586 | -77.29044 | 5928 ft | 2 kts | 97° |
| 2026-05-08 23:17 | 1.39583 | -77.29020 | 5928 ft | 3 kts | 102° |
| 2026-05-08 23:18 | 1.39575 | -77.28989 | 5923 ft | 1 kts | 106° |
| 2026-05-08 23:18 | 1.39574 | -77.28984 | 5922 ft | 0 kts | 106° |